Weather at Pittsburgh International Airport

Public forecast

Using degrees Fahrenheit for public forecast. Weather courtesy of forecast.io.

Current aviation weather report (METAR) for Pittsburgh International Airport

2024/06/18 04:51 (retrieved 22 minutes ago)

KPIT 180451Z 00000KT 10SM -RA SCT070 BKN160 22/19 A3015 RMK AO2 RAB46 SLP207 P0000 T02170189 403440117

Closest aviation forecast (TAF) to Pittsburgh International Airport

Forecast is more than 6 hours old.

Closest forecast is Davison Army Air Field, 176.9 nm (327.7 km) SE.

2024/06/17 20:32 (retrieved 9 hours ago)

TAF KDAA 172000Z 1720/1902 VRB06KT 9999 FEW070 FEW250 QNH3009INS BECMG 1806/1807 VRB06KT 9999 FEW020 BKN030 QNH3019INS BECMG 1815/1816 VRB06KT 9999 BKN035 QNH3022INS BECMG 1822/1823 14010G15KT 9999 FEW040 QNH3023INS TX32/1720Z TN20/1810Z LAST NO AMDS AFT 1801 NEXT 1812